Time;durP1;ratioP1;P1;durP2;ratioP2;P2;SDS_P1;SDS_P2;PMS_P1;PMS_P2;Temp;Humidity;BMP_temperature;BMP_pressure;BME280_temperature;BME280_humidity;BME280_pressure;Samples;Min_cycle;Max_cycle;Signal;HPM_P1;HPM_P2
2023/10/09 00:01:01;;;;;;;14.40;3.80;;;;;;;-141.97;43.50;47432.59;5033069;28;20228;-86
2023/10/09 00:03:27;;;;;;;11.43;3.60;;;;;;;-141.97;43.48;47230.78;5031392;28;20191;-87
2023/10/09 00:05:53;;;;;;;7.67;3.20;;;;;;;-141.97;43.75;47365.31;5032812;28;20623;-87
2023/10/09 00:08:26;;;;;;;12.93;3.40;;;;;;;-141.97;43.96;47570.97;5033304;28;20180;-86
2023/10/09 00:10:55;;;;;;;9.13;3.50;;;;;;;-141.97;44.35;47403.75;5040533;28;20158;-86
2023/10/09 00:13:31;;;;;;;9.50;3.50;;;;;;;-141.97;44.63;47430.66;5032137;28;20220;-87
2023/10/09 00:16:14;;;;;;;8.40;3.50;;;;;;;-141.97;44.65;47280.75;5032740;28;20164;-87
2023/10/09 00:18:45;;;;;;;11.27;3.60;;;;;;;-141.97;44.83;47434.50;5005492;28;20222;-89
2023/10/09 00:21:15;;;;;;;12.23;3.30;;;;;;;-141.97;44.93;47582.50;5032402;28;20487;-89
2023/10/09 00:23:41;;;;;;;12.70;3.60;;;;;;;-141.97;45.09;47542.16;5033888;28;20174;-89
2023/10/09 00:26:16;;;;;;;10.00;3.47;;;;;;;-141.97;45.40;47321.13;5034696;28;20176;-87
2023/10/09 00:28:43;;;;;;;9.10;3.43;;;;;;;-141.97;45.53;47444.13;5034214;28;20177;-87
2023/10/09 00:31:14;;;;;;;8.10;3.10;;;;;;;-141.97;45.67;47511.38;5052022;28;20162;-87
2023/10/09 00:33:41;;;;;;;8.00;3.13;;;;;;;-141.97;46.14;47409.53;5035577;28;20182;-87
2023/10/09 00:36:10;;;;;;;9.07;3.60;;;;;;;-141.97;45.98;47553.69;5031824;28;20281;-86
2023/10/09 00:38:39;;;;;;;11.40;3.70;;;;;;;-141.97;45.98;47459.50;5031793;28;20604;-87
2023/10/09 00:41:10;;;;;;;8.37;3.23;;;;;;;-141.97;45.87;47267.31;5032005;28;20150;-86
2023/10/09 00:43:37;;;;;;;13.10;3.67;;;;;;;-141.97;45.94;47559.44;5038746;28;20728;-87
2023/10/09 00:48:47;;;;;;;11.53;3.67;;;;;;;-141.97;46.45;47430.66;5031965;28;20228;-88
2023/10/09 00:51:18;;;;;;;9.60;3.23;;;;;;;-141.97;46.41;47469.09;5044435;28;20160;-86
2023/10/09 00:53:50;;;;;;;7.37;3.13;;;;;;;-141.97;46.37;47453.72;5039777;28;20201;-86
2023/10/09 00:56:38;;;;;;;12.00;3.30;;;;;;;-141.97;46.27;47376.84;5031498;28;20162;-88
2023/10/09 00:59:08;;;;;;;9.47;3.10;;;;;;;-141.97;45.84;47405.69;5031436;28;20189;-84
2023/10/09 01:01:36;;;;;;;9.23;3.00;;;;;;;-141.97;45.49;47405.69;5031539;28;20162;-85
2023/10/09 01:04:17;;;;;;;15.53;5.30;;;;;;;-141.97;45.28;47361.47;5031555;28;20180;-86
2023/10/09 01:06:44;;;;;;;8.23;4.50;;;;;;;-141.97;44.46;47422.97;5031988;28;20169;-86
2023/10/09 01:09:20;;;;;;;9.07;5.17;;;;;;;-141.97;44.32;47363.41;5031274;28;20236;-88
2023/10/09 01:12:02;;;;;;;16.03;6.20;;;;;;;-141.97;44.15;47417.22;5032420;28;20233;-88
2023/10/09 01:14:28;;;;;;;7.80;4.43;;;;;;;-141.97;43.67;47544.06;5031219;28;20185;-86
2023/10/09 01:16:56;;;;;;;8.43;3.70;;;;;;;-141.97;43.06;47338.41;5031002;28;20173;-86
2023/10/09 01:19:25;;;;;;;7.13;3.37;;;;;;;-141.97;42.97;47442.19;5008660;28;20233;-85
2023/10/09 01:22:04;;;;;;;5.37;2.97;;;;;;;-141.97;42.89;47611.34;5032642;28;20185;-86
2023/10/09 01:24:31;;;;;;;5.97;3.40;;;;;;;-141.97;43.03;47419.13;5031159;28;20260;-86
2023/10/09 01:26:59;;;;;;;6.30;2.73;;;;;;;-141.97;43.02;47607.50;5030625;28;20161;-87
2023/10/09 01:29:27;;;;;;;7.50;2.63;;;;;;;-141.97;43.07;47476.78;5030955;28;20166;-86
2023/10/09 01:32:00;;;;;;;3.87;2.60;;;;;;;-141.97;43.17;47369.16;5039669;28;20210;-85
2023/10/09 01:34:42;;;;;;;7.20;2.97;;;;;;;-141.97;43.32;47530.59;5053650;28;20190;-84
2023/10/09 01:37:18;;;;;;;5.63;2.87;;;;;;;-141.97;43.70;47426.81;5045510;28;20165;-86
2023/10/09 01:39:51;;;;;;;6.03;2.80;;;;;;;-141.97;43.97;47570.97;5035726;28;20156;-86
2023/10/09 01:42:24;;;;;;;9.53;2.70;;;;;;;-141.97;44.16;47459.50;5034131;28;20220;-85
2023/10/09 01:44:51;;;;;;;5.30;2.40;;;;;;;-141.97;44.25;47313.44;5031584;28;20161;-86
2023/10/09 01:47:18;;;;;;;4.47;2.50;;;;;;;-141.97;44.19;47428.75;5031096;28;20575;-84
2023/10/09 01:49:49;;;;;;;4.13;2.53;;;;;;;-141.97;44.45;47567.13;5013438;28;20618;-86
2023/10/09 01:52:18;;;;;;;4.10;2.73;;;;;;;-141.97;44.83;47396.06;5012681;28;20536;-85
2023/10/09 01:54:50;;;;;;;5.17;2.70;;;;;;;-141.97;45.17;47449.88;5033020;28;20261;-85
2023/10/09 01:57:24;;;;;;;5.47;2.77;;;;;;;-141.97;45.28;47449.88;5046617;28;20181;-86
2023/10/09 01:59:53;;;;;;;8.97;2.87;;;;;;;-141.97;45.18;47371.09;5048553;28;20200;-86
2023/10/09 02:02:31;;;;;;;7.13;3.60;;;;;;;-141.97;45.66;47530.59;5032683;28;20162;-85
2023/10/09 02:05:24;;;;;;;5.10;2.90;;;;;;;-141.97;45.36;47421.06;5032095;28;20216;-85
2023/10/09 02:07:53;;;;;;;6.50;2.90;;;;;;;-141.97;45.32;47453.72;5030852;28;20190;-86
2023/10/09 02:10:31;;;;;;;7.93;3.30;;;;;;;-141.97;44.78;47438.34;5030473;28;20252;-84
2023/10/09 02:13:06;;;;;;;6.90;3.40;;;;;;;-141.97;44.76;47461.41;5012461;28;20634;-85
2023/10/09 02:23:26;;;;;;;9.80;3.80;;;;;;;-141.97;45.01;47426.81;5030374;28;20162;-85
2023/10/09 02:25:57;;;;;;;9.10;4.83;;;;;;;-141.97;45.38;47471.03;5046010;28;20492;-85
2023/10/09 02:28:22;;;;;;;16.03;4.63;;;;;;;-141.97;47.35;47570.97;5053159;28;20236;-84
2023/10/09 02:30:48;;;;;;;12.43;3.80;;;;;;;-141.97;49.51;47461.41;5036319;28;20248;-86
2023/10/09 02:33:27;;;;;;;14.83;3.77;;;;;;;-141.97;50.03;47373.00;5044587;28;20245;-86
2023/10/09 02:35:54;;;;;;;10.43;3.20;;;;;;;-141.97;50.58;47421.06;5034098;28;20162;-86
2023/10/09 02:38:22;;;;;;;13.27;3.17;;;;;;;-141.97;51.04;47382.63;5033945;28;20158;-85
2023/10/09 02:41:20;;;;;;;12.93;3.00;;;;;;;-141.97;50.10;47476.78;5033811;28;20250;-86
2023/10/09 02:43:46;;;;;;;10.13;2.60;;;;;;;-141.97;49.88;47488.31;5033149;28;20658;-86
2023/10/09 02:46:29;;;;;;;9.30;2.70;;;;;;;-141.97;50.53;47261.53;5033974;28;20173;-85
2023/10/09 02:48:56;;;;;;;17.73;2.90;;;;;;;-141.97;50.58;47436.44;5034170;28;20626;-86
2023/10/09 02:53:51;;;;;;;8.53;2.70;;;;;;;-141.97;50.41;47365.31;5033154;28;20214;-84
2023/10/09 02:56:23;;;;;;;11.93;2.90;;;;;;;-141.97;50.26;47449.88;5015803;28;20257;-85
2023/10/09 02:58:50;;;;;;;11.40;2.80;;;;;;;-141.97;50.04;47592.13;5026960;28;20189;-85
2023/10/09 03:01:15;;;;;;;11.63;2.50;;;;;;;-141.97;50.40;47434.50;5014075;28;20209;-85
2023/10/09 03:03:45;;;;;;;13.57;3.00;;;;;;;-141.97;49.92;47321.13;5025038;28;20654;-84
2023/10/09 03:06:12;;;;;;;10.50;2.90;;;;;;;-141.97;49.63;47574.81;5034190;28;20157;-85
2023/10/09 03:08:40;;;;;;;10.77;2.93;;;;;;;-141.97;49.45;47478.72;5033345;28;20673;-85
2023/10/09 03:11:12;;;;;;;7.50;2.47;;;;;;;-141.97;49.55;47492.16;5015667;28;20553;-86
2023/10/09 03:13:43;;;;;;;5.00;2.60;;;;;;;-141.97;49.52;47409.53;5047672;28;20193;-85
2023/10/09 03:16:18;;;;;;;12.27;2.63;;;;;;;-141.97;49.63;47357.63;5039165;28;20166;-87
2023/10/09 03:18:46;;;;;;;7.67;2.33;;;;;;;-141.97;49.49;47480.63;5037129;28;20169;-86
2023/10/09 03:21:12;;;;;;;6.17;2.30;;;;;;;-141.97;49.33;47599.81;5012394;28;20234;-86
2023/10/09 03:23:38;;;;;;;12.77;3.10;;;;;;;-141.97;49.23;47557.53;5032781;28;20173;-87
2023/10/09 03:26:04;;;;;;;8.13;2.50;;;;;;;-141.97;49.37;47484.47;5050839;28;20171;-87
2023/10/09 03:28:29;;;;;;;7.53;2.40;;;;;;;-141.97;49.51;47455.66;5053404;28;20193;-88
2023/10/09 03:30:55;;;;;;;8.27;2.40;;;;;;;-141.97;49.53;47430.66;5055217;28;20219;-87
2023/10/09 03:33:20;;;;;;;9.57;2.50;;;;;;;-141.97;49.29;47603.66;5046775;28;20166;-86
2023/10/09 03:35:46;;;;;;;4.67;2.23;;;;;;;-141.97;49.14;47538.28;5035366;28;20165;-86
2023/10/09 03:38:18;;;;;;;9.17;2.40;;;;;;;-141.97;49.45;47319.19;5033797;28;20244;-87
2023/10/09 03:40:49;;;;;;;7.27;2.10;;;;;;;-141.97;49.52;47459.50;5035494;28;20245;-89
2023/10/09 03:43:15;;;;;;;6.77;2.10;;;;;;;-141.97;49.83;47488.31;5021574;28;20221;-85
2023/10/09 03:45:52;;;;;;;7.47;2.23;;;;;;;-141.97;49.66;47544.06;5024216;28;20257;-85
2023/10/09 03:48:31;;;;;;;11.13;2.50;;;;;;;-141.97;49.89;47630.56;5025852;28;20231;-86
2023/10/09 03:51:11;;;;;;;7.20;2.13;;;;;;;-141.97;50.06;47461.41;5025100;28;20238;-86
2023/10/09 03:53:39;;;;;;;7.97;2.30;;;;;;;-141.97;49.63;47557.53;5017662;28;20669;-87
2023/10/09 03:56:11;;;;;;;4.30;2.07;;;;;;;-141.97;49.24;47484.47;5034174;28;20157;-88
2023/10/09 03:58:42;;;;;;;4.53;2.47;;;;;;;-141.97;49.74;47490.25;5033791;28;20272;-87
2023/10/09 04:03:47;;;;;;;5.33;2.13;;;;;;;-141.97;49.80;47409.53;5034000;28;20259;-87
2023/10/09 04:06:13;;;;;;;4.23;2.00;;;;;;;-141.97;49.76;47624.78;5035205;28;20221;-88
2023/10/09 04:08:46;;;;;;;4.23;2.17;;;;;;;-141.97;49.91;47434.50;5034456;28;20237;-87
2023/10/09 04:11:16;;;;;;;8.23;2.10;;;;;;;-141.97;49.34;47492.16;5034917;28;20622;-87
2023/10/09 04:13:49;;;;;;;4.77;2.00;;;;;;;-141.97;49.25;47592.13;5033651;28;20298;-87
2023/10/09 04:19:11;;;;;;;6.50;2.00;;;;;;;-141.97;48.99;47415.28;4971731;28;20192;-86
2023/10/09 04:21:37;;;;;;;5.73;2.00;;;;;;;-141.97;48.78;47392.22;4948214;28;20661;-87
2023/10/09 04:26:44;;;;;;;7.53;2.33;;;;;;;-141.97;47.98;47505.63;4978230;28;20166;-87
2023/10/09 04:29:10;;;;;;;3.87;2.00;;;;;;;-141.97;47.81;47336.50;4991981;28;20160;-88
2023/10/09 04:31:37;;;;;;;6.47;2.33;;;;;;;-141.97;47.69;47480.63;4991381;28;20188;-89
2023/10/09 04:36:59;;;;;;;7.70;2.47;;;;;;;-141.97;46.65;47363.41;4977786;28;20196;-87
2023/10/09 04:44:59;;;;;;;4.10;2.23;;;;;;;-141.97;46.53;47476.78;4972370;28;20562;-87
2023/10/09 04:51:10;;;;;;;4.70;2.20;;;;;;;-141.97;46.35;47453.72;4952924;28;20200;-87
2023/10/09 04:53:28;;;;;;;6.97;2.30;;;;;;;-141.97;46.24;47461.41;4952086;29;20736;-87
2023/10/09 04:55:54;;;;;;;5.93;2.43;;;;;;;-141.97;46.30;47465.25;4972662;28;20251;-87
2023/10/09 04:58:25;;;;;;;6.40;2.30;;;;;;;-141.97;46.49;47488.31;4991877;28;20217;-88
2023/10/09 05:03:42;;;;;;;6.03;2.80;;;;;;;-141.97;46.25;47447.97;4992139;28;20731;-85
2023/10/09 05:06:21;;;;;;;7.17;2.63;;;;;;;-141.97;45.58;47472.94;4990561;28;20171;-85
2023/10/09 05:08:53;;;;;;;7.60;2.80;;;;;;;-141.97;45.55;47440.28;4976261;28;20238;-86
2023/10/09 05:14:12;;;;;;;13.87;2.70;;;;;;;-141.97;45.05;47638.25;4989816;28;20694;-85
2023/10/09 05:16:53;;;;;;;6.77;2.50;;;;;;;-141.97;44.62;47603.66;4991326;28;20171;-83
2023/10/09 05:19:29;;;;;;;10.57;2.70;;;;;;;-141.97;45.00;47480.63;4994051;28;20167;-90
2023/10/09 05:21:58;;;;;;;8.70;2.70;;;;;;;-141.97;44.04;47438.34;4971029;28;20237;-94
2023/10/09 05:24:26;;;;;;;7.30;2.63;;;;;;;-141.97;44.02;47492.16;4974110;28;20167;-87
2023/10/09 05:26:52;;;;;;;6.93;2.73;;;;;;;-141.97;43.73;47469.09;4996888;28;20201;-86
2023/10/09 05:34:33;;;;;;;5.30;2.80;;;;;;;-141.97;43.16;47432.59;5027050;28;20197;-86
2023/10/09 05:37:16;;;;;;;7.20;2.50;;;;;;;-141.97;43.08;47426.81;5014867;28;20174;-85
2023/10/09 05:40:08;;;;;;;6.50;3.27;;;;;;;-141.97;43.35;47311.50;5014750;28;20622;-87
2023/10/09 05:53:04;;;;;;;12.73;4.43;;;;;;;-141.97;43.75;47482.56;5032097;28;20154;-86
2023/10/09 06:03:11;;;;;;;11.87;2.97;;;;;;;-141.97;43.22;47449.88;5049554;28;20165;-86
2023/10/09 06:03:54;;;;;;;5.30;2.87;;;;;;;-141.97;42.54;47390.31;5045091;28;20633;-86
2023/10/09 06:06:33;;;;;;;10.30;2.80;;;;;;;-141.97;42.38;47549.84;5035858;28;20240;-86
2023/10/09 06:11:39;;;;;;;4.87;2.53;;;;;;;-141.97;40.59;47478.72;5035312;28;20544;-87
2023/10/09 06:24:22;;;;;;;5.00;2.43;;;;;;;-141.97;41.11;47572.91;5028079;28;20296;-85
2023/10/09 06:35:18;;;;;;;7.13;2.60;;;;;;;-141.97;41.49;47315.34;5001113;28;20198;-86
2023/10/09 06:43:15;;;;;;;5.17;2.50;;;;;;;-141.97;41.12;47480.63;4993445;28;20316;-91
2023/10/09 06:45:54;;;;;;;7.63;2.50;;;;;;;-141.97;40.81;47488.31;4976279;28;20170;-86
2023/10/09 06:51:12;;;;;;;5.67;2.70;;;;;;;-141.97;40.72;47407.59;4993592;28;20262;-89
2023/10/09 06:58:57;;;;;;;7.30;2.60;;;;;;;-141.97;40.98;47492.16;5004047;28;20163;-88
2023/10/09 07:04:10;;;;;;;5.27;2.60;;;;;;;-141.97;40.86;47365.31;5008858;28;20199;-90
2023/10/09 07:17:26;;;;;;;5.93;2.63;;;;;;;-141.97;40.65;47444.13;5062664;28;20170;-88
2023/10/09 07:22:18;;;;;;;5.80;2.60;;;;;;;-141.97;39.56;47561.38;5042926;28;20169;-88
2023/10/09 07:24:43;;;;;;;4.13;2.77;;;;;;;-141.97;39.22;47298.06;5037858;28;20502;-90
2023/10/09 07:27:11;;;;;;;6.70;2.83;;;;;;;-141.97;39.45;47369.16;5027881;28;20190;-89
2023/10/09 07:29:47;;;;;;;5.13;2.67;;;;;;;-141.97;38.85;47328.81;5019612;28;20178;-89
2023/10/09 07:32:20;;;;;;;6.73;2.40;;;;;;;-141.97;38.88;47511.38;5036147;28;20279;-88
2023/10/09 07:35:04;;;;;;;6.80;2.70;;;;;;;-141.97;38.01;47459.50;5026720;28;20609;-90
2023/10/09 07:37:34;;;;;;;6.50;2.57;;;;;;;-141.97;37.32;47511.38;5017371;28;20170;-88
2023/10/09 07:40:06;;;;;;;8.00;2.50;;;;;;;-141.97;37.54;47457.56;5016449;28;20567;-89
2023/10/09 07:48:02;;;;;;;3.37;2.30;;;;;;;-141.97;37.70;47476.78;5033522;28;20178;-89
2023/10/09 07:50:49;;;;;;;4.77;2.47;;;;;;;-141.97;37.25;47451.81;5018584;28;20162;-92
2023/10/09 07:53:18;;;;;;;3.03;2.60;;;;;;;-141.97;37.74;47367.25;5006671;28;20177;-91
2023/10/09 07:58:46;;;;;;;6.23;2.50;;;;;;;-141.97;37.25;47603.66;4934445;29;20209;-89
2023/10/09 08:01:16;;;;;;;3.47;2.70;;;;;;;-141.97;36.51;47659.38;4936160;29;20181;-88
2023/10/09 08:03:46;;;;;;;4.27;2.40;;;;;;;-141.97;36.99;47382.63;4940430;29;20182;-88
2023/10/09 08:14:20;;;;;;;4.63;3.40;;;;;;;-141.97;36.44;47323.03;4947407;29;20193;-88
2023/10/09 08:16:46;;;;;;;6.33;3.30;;;;;;;-141.97;36.31;47578.66;4934479;29;20197;-89
2023/10/09 08:19:33;;;;;;;6.50;3.13;;;;;;;-141.97;37.22;47430.66;4939164;29;20195;-88
2023/10/09 08:24:56;;;;;;;6.13;3.20;;;;;;;-141.97;36.14;47540.22;4952959;28;20185;-90
2023/10/09 08:30:28;;;;;;;6.07;3.30;;;;;;;-141.97;36.37;47586.34;4935243;29;20193;-89
2023/10/09 08:32:42;;;;;;;7.50;3.03;;;;;;;-141.97;36.89;47355.72;4934111;29;20622;-89
2023/10/09 08:37:52;;;;;;;6.83;3.10;;;;;;;-141.97;36.41;47365.31;4991469;28;20284;-88
2023/10/09 08:40:21;;;;;;;7.57;3.00;;;;;;;-141.97;36.74;47576.75;4990820;28;20169;-88
2023/10/09 08:42:53;;;;;;;6.73;3.50;;;;;;;-141.97;36.67;47361.47;4974596;28;20327;-88
2023/10/09 08:45:24;;;;;;;5.90;3.20;;;;;;;-141.97;35.60;47509.47;4990861;28;20736;-89
2023/10/09 08:47:54;;;;;;;6.67;3.17;;;;;;;-141.97;35.08;47438.34;4990035;28;20242;-87
2023/10/09 08:50:21;;;;;;;4.60;3.03;;;;;;;-141.97;35.20;47369.16;4990475;28;20176;-89
2023/10/09 08:52:48;;;;;;;6.50;3.23;;;;;;;-141.97;35.69;47373.00;4974078;28;20611;-88
2023/10/09 08:55:16;;;;;;;7.70;3.53;;;;;;;-141.97;35.29;47342.25;4990459;28;20271;-91
2023/10/09 08:57:44;;;;;;;8.30;3.37;;;;;;;-141.97;34.97;47578.66;4975654;28;20211;-91
2023/10/09 09:00:21;;;;;;;6.57;3.40;;;;;;;-141.97;34.76;47388.38;5004997;28;20603;-90
2023/10/09 09:02:47;;;;;;;8.27;3.70;;;;;;;-141.97;34.91;47351.88;5036155;28;20558;-90
2023/10/09 09:05:22;;;;;;;11.10;3.57;;;;;;;-141.97;34.50;47419.13;5027693;28;20289;-90
2023/10/09 09:07:48;;;;;;;7.10;3.47;;;;;;;-141.97;34.15;47582.50;5016648;28;20208;-88
2023/10/09 09:10:24;;;;;;;6.77;3.80;;;;;;;-141.97;33.87;47601.72;5013842;28;20528;-90
2023/10/09 09:13:00;;;;;;;6.93;3.60;;;;;;;-141.97;33.70;47392.22;5014731;28;20201;-90
2023/10/09 09:15:27;;;;;;;11.37;3.60;;;;;;;-141.97;34.47;47353.78;5026036;28;20216;-89
2023/10/09 09:18:06;;;;;;;6.67;3.83;;;;;;;-141.97;34.81;47584.44;5039106;28;20542;-89
2023/10/09 09:20:36;;;;;;;6.53;3.90;;;;;;;-141.97;34.64;47592.13;5014927;28;20206;-90
2023/10/09 09:23:05;;;;;;;10.57;3.50;;;;;;;-141.97;34.30;47428.75;5016763;28;20176;-91
2023/10/09 09:25:45;;;;;;;7.40;3.97;;;;;;;-141.97;33.98;47311.50;5014299;28;20581;-90
2023/10/09 09:28:21;;;;;;;6.73;3.70;;;;;;;-141.97;33.70;47459.50;5031418;28;20184;-90
2023/10/09 09:30:51;;;;;;;7.53;3.40;;;;;;;-141.97;34.15;47353.78;5018036;28;20563;-90
2023/10/09 09:33:40;;;;;;;7.93;3.70;;;;;;;-141.97;33.54;47261.53;5002890;28;20195;-90
2023/10/09 09:36:07;;;;;;;8.90;3.43;;;;;;;-141.97;33.43;47430.66;5030626;28;20249;-89
2023/10/09 09:38:50;;;;;;;6.63;3.50;;;;;;;-141.97;33.98;47396.06;5042340;28;20264;-90
2023/10/09 09:41:26;;;;;;;5.23;3.40;;;;;;;-141.97;34.34;47599.81;5049774;28;20181;-87
2023/10/09 09:44:01;;;;;;;8.10;3.40;;;;;;;-141.97;34.67;47446.03;5042542;28;20161;-87
2023/10/09 09:46:33;;;;;;;8.20;3.40;;;;;;;-141.97;33.96;47376.84;5039272;28;20192;-91
2023/10/09 09:49:03;;;;;;;7.35;3.45;;;;;;;-141.97;33.13;47628.63;5019999;28;20405;-91
2023/10/09 09:51:32;;;;;;;7.43;3.53;;;;;;;-141.97;32.74;47319.19;5023370;28;20188;-90
2023/10/09 09:53:58;;;;;;;12.93;3.60;;;;;;;-141.97;32.96;47567.13;5044783;28;20196;-89
2023/10/09 09:56:33;;;;;;;5.53;2.90;;;;;;;-141.97;33.19;47373.00;5022543;28;20583;-90
2023/10/09 09:59:04;;;;;;;5.37;3.33;;;;;;;-141.97;34.31;47538.28;5022132;28;20193;-89
2023/10/09 10:01:35;;;;;;;5.93;3.40;;;;;;;-141.97;34.52;47296.13;5040673;28;20543;-89
2023/10/09 10:04:14;;;;;;;10.47;3.27;;;;;;;-141.97;35.23;47290.38;5039949;28;20301;-91
2023/10/09 10:06:44;;;;;;;8.27;3.00;;;;;;;-141.97;34.82;47509.47;5021420;28;20189;-91
2023/10/09 10:09:10;;;;;;;8.50;3.03;;;;;;;-141.97;34.77;47530.59;5030042;28;20174;-90
2023/10/09 10:11:52;;;;;;;4.93;3.10;;;;;;;-141.97;34.07;47465.25;5038840;28;20165;-90
2023/10/09 10:14:31;;;;;;;9.00;3.33;;;;;;;-141.97;34.17;47463.34;5036098;28;20201;-90
2023/10/09 10:17:18;;;;;;;6.83;3.10;;;;;;;-141.97;34.18;47436.44;5044339;28;20155;-89
2023/10/09 10:22:47;;;;;;;5.53;3.23;;;;;;;-141.97;33.98;47419.13;5060547;28;20170;-85
2023/10/09 10:25:32;;;;;;;11.13;3.80;;;;;;;-141.97;33.69;47424.91;5052067;28;20177;-87
2023/10/09 10:28:17;;;;;;;9.30;3.40;;;;;;;-141.97;33.64;47419.13;5039352;28;20189;-88
2023/10/09 10:30:50;;;;;;;6.90;3.20;;;;;;;-141.97;33.02;47353.78;5038833;28;20166;-88
2023/10/09 10:33:16;;;;;;;7.37;3.50;;;;;;;-141.97;33.22;47286.53;5037974;28;20599;-87
2023/10/09 10:35:45;;;;;;;9.23;3.30;;;;;;;-141.97;33.29;47380.69;5027502;28;20229;-87
2023/10/09 10:38:32;;;;;;;8.50;3.30;;;;;;;-141.97;33.28;47422.97;5037531;28;20558;-88
2023/10/09 10:41:11;;;;;;;9.20;3.47;;;;;;;-141.97;33.24;47388.38;5019748;28;20292;-87
2023/10/09 10:46:30;;;;;;;6.80;3.40;;;;;;;-141.97;32.86;47421.06;5036891;28;20247;-88
2023/10/09 10:48:59;;;;;;;6.93;3.30;;;;;;;-141.97;33.14;47476.78;5011957;28;20261;-87
2023/10/09 10:51:37;;;;;;;10.57;3.50;;;;;;;-141.97;32.80;47373.00;5035101;28;20241;-88
2023/10/09 10:56:48;;;;;;;8.30;3.67;;;;;;;-141.97;32.77;47409.53;5054240;28;20316;-88
2023/10/09 10:59:14;;;;;;;6.10;3.30;;;;;;;-141.97;32.39;47319.19;5035782;28;20165;-86
2023/10/09 11:04:43;;;;;;;7.40;3.20;;;;;;;-141.97;32.87;47453.72;4953490;29;20526;-87
2023/10/09 11:07:09;;;;;;;5.63;3.60;;;;;;;-141.97;32.63;47599.81;4954231;29;20192;-87
2023/10/09 11:15:45;;;;;;;7.67;3.60;;;;;;;-141.97;33.68;47361.47;4968651;29;20199;-87
2023/10/09 11:18:27;;;;;;;6.67;3.27;;;;;;;-141.97;33.71;47417.22;4953986;29;20311;-85
2023/10/09 11:21:23;;;;;;;9.47;3.57;;;;;;;-141.97;33.96;47419.13;4954686;29;20184;-87
2023/10/09 11:29:23;;;;;;;10.70;3.63;;;;;;;-141.97;32.90;47617.09;4953056;29;20633;-88
2023/10/09 11:32:05;;;;;;;8.53;3.50;;;;;;;-141.97;32.65;47419.13;4953496;29;20196;-87
2023/10/09 11:34:32;;;;;;;8.80;3.60;;;;;;;-141.97;32.77;47392.22;4943555;28;20888;-88
2023/10/09 11:37:04;;;;;;;4.67;3.30;;;;;;;-141.97;33.17;47330.72;4953763;29;20173;-87
2023/10/09 11:39:34;;;;;;;8.87;3.63;;;;;;;-141.97;33.23;47422.97;5021411;28;20310;-86
2023/10/09 11:42:14;;;;;;;8.57;4.13;;;;;;;-141.97;33.47;47184.66;5033213;28;20225;-86
2023/10/09 11:44:44;;;;;;;6.97;3.83;;;;;;;-141.97;33.98;47434.50;5051956;28;20262;-86
2023/10/09 11:50:13;;;;;;;5.53;3.60;;;;;;;-141.97;32.82;47438.34;5051298;28;20669;-85
2023/10/09 11:53:19;;;;;;;7.10;3.43;;;;;;;-141.97;32.37;47422.97;4972798;28;20210;-86
2023/10/09 11:55:49;;;;;;;8.10;3.47;;;;;;;-141.97;31.24;47373.00;4973166;28;20294;-86
2023/10/09 11:58:24;;;;;;;12.60;3.63;;;;;;;-141.97;31.18;47394.16;4973721;28;20648;-86
2023/10/09 12:00:56;;;;;;;6.60;3.50;;;;;;;-141.97;30.71;47353.78;4971625;28;20179;-85
2023/10/09 12:03:29;;;;;;;7.13;4.00;;;;;;;-141.97;30.20;47396.06;4974199;28;20185;-85
2023/10/09 12:06:14;;;;;;;6.93;3.38;;;;;;;-141.97;30.08;47307.66;4958274;28;20193;-85
2023/10/09 12:08:42;;;;;;;8.05;4.22;;;;;;;-141.97;30.17;47380.69;4975460;28;20163;-85
2023/10/09 12:11:09;;;;;;;8.23;3.63;;;;;;;-141.97;30.62;47284.59;4975142;28;20191;-86
2023/10/09 12:13:38;;;;;;;9.77;3.80;;;;;;;-141.97;30.92;47401.84;4957376;28;20183;-86
2023/10/09 12:16:08;;;;;;;6.22;3.72;;;;;;;-141.97;31.02;47323.03;4973772;28;20194;-85
2023/10/09 12:18:34;;;;;;;6.85;3.95;;;;;;;-141.97;30.58;47319.19;4984019;28;20174;-86
2023/10/09 12:21:04;;;;;;;7.28;3.90;;;;;;;-141.97;30.12;47349.94;4977809;28;20237;-86
2023/10/09 12:23:35;;;;;;;8.65;3.50;;;;;;;-141.97;29.69;47357.63;4980589;28;20203;-86
2023/10/09 12:26:04;;;;;;;5.60;3.40;;;;;;;-141.97;29.86;47382.63;4974392;28;20170;-87
2023/10/09 12:28:32;;;;;;;8.27;3.78;;;;;;;-141.97;30.01;47317.28;4984804;28;20261;-86
2023/10/09 12:31:01;;;;;;;8.75;3.88;;;;;;;-141.97;29.50;47376.84;5044702;28;20168;-88
2023/10/09 12:33:28;;;;;;;11.27;3.33;;;;;;;-141.97;29.57;47446.03;5029418;28;20163;-85
2023/10/09 12:36:00;;;;;;;5.70;3.40;;;;;;;-141.97;29.66;47549.84;5021072;28;20232;-87
2023/10/09 12:38:32;;;;;;;10.80;3.45;;;;;;;-141.97;28.98;47261.53;5035676;28;20165;-88
2023/10/09 12:41:07;;;;;;;4.90;3.22;;;;;;;-141.97;29.24;47367.25;5034382;28;20249;-88
2023/10/09 12:43:37;;;;;;;6.55;3.22;;;;;;;-141.97;28.68;47296.13;5025267;28;20236;-89
2023/10/09 12:46:07;;;;;;;5.43;3.83;;;;;;;-141.97;28.75;47328.81;5053006;28;20190;-88
2023/10/09 12:48:33;;;;;;;7.20;3.10;;;;;;;-141.97;28.63;47561.38;5035602;28;20170;-89
2023/10/09 12:51:05;;;;;;;13.32;3.63;;;;;;;-141.97;28.76;47188.50;5042480;28;20235;-87
2023/10/09 12:53:32;;;;;;;7.40;3.55;;;;;;;-141.97;28.57;47334.56;5034029;28;20165;-87
2023/10/09 12:55:58;;;;;;;10.45;3.70;;;;;;;-141.97;29.09;47407.59;5018250;28;20553;-87
2023/10/09 12:58:26;;;;;;;5.65;3.65;;;;;;;-141.97;29.12;47507.53;5034486;28;20172;-87
2023/10/09 13:00:52;;;;;;;9.43;3.40;;;;;;;-141.97;28.82;47346.09;5019854;28;20182;-85
2023/10/09 13:03:17;;;;;;;9.77;3.42;;;;;;;-141.97;28.29;47534.44;5041254;28;20166;-93
2023/10/09 13:05:54;;;;;;;4.72;3.28;;;;;;;-141.97;28.06;47501.78;5029453;28;20229;-88
2023/10/09 13:08:31;;;;;;;7.15;3.47;;;;;;;-141.97;28.67;47373.00;5054652;28;20159;-89
2023/10/09 13:11:04;;;;;;;10.10;3.58;;;;;;;-141.97;28.68;47371.09;5042175;28;20193;-88
2023/10/09 13:16:27;;;;;;;7.57;3.72;;;;;;;-141.97;27.97;47492.16;4977570;28;20191;-89
2023/10/09 13:18:54;;;;;;;6.80;3.50;;;;;;;-141.97;28.51;47374.94;4959182;28;20164;-87
2023/10/09 13:21:26;;;;;;;9.60;3.53;;;;;;;-141.97;28.22;47332.66;4974688;28;20209;-88
2023/10/09 13:23:54;;;;;;;7.22;3.50;;;;;;;-141.97;28.48;47369.16;4957304;28;20162;-88
2023/10/09 13:26:25;;;;;;;8.95;3.90;;;;;;;-141.97;28.03;47376.84;4973251;28;20187;-88
2023/10/09 13:28:54;;;;;;;8.50;3.45;;;;;;;-141.97;27.38;47338.41;4973470;28;20192;-88
2023/10/09 13:31:22;;;;;;;7.22;3.03;;;;;;;-141.97;27.63;47246.16;4974118;28;20184;-88
2023/10/09 13:33:48;;;;;;;6.60;3.20;;;;;;;-141.97;27.65;47476.78;4974760;28;20216;-88
2023/10/09 13:36:26;;;;;;;7.45;3.50;;;;;;;-141.97;26.96;47342.25;4973677;28;20228;-90
2023/10/09 13:38:55;;;;;;;8.20;3.60;;;;;;;-141.97;26.56;47207.72;4969105;28;20201;-89
2023/10/09 13:41:21;;;;;;;5.60;3.50;;;;;;;-141.97;27.25;47196.19;4982013;28;20172;-89
2023/10/09 13:43:46;;;;;;;5.97;3.20;;;;;;;-141.97;26.72;47230.78;4978284;28;20183;-89
2023/10/09 13:46:12;;;;;;;5.22;3.20;;;;;;;-141.97;26.20;47607.50;4960973;28;20579;-90
2023/10/09 13:48:43;;;;;;;5.25;3.17;;;;;;;-141.97;25.75;47055.91;4974158;28;20253;-88
2023/10/09 13:51:13;;;;;;;6.47;3.25;;;;;;;-141.97;25.64;47178.91;4982750;28;20175;-88
2023/10/09 13:53:44;;;;;;;6.38;3.85;;;;;;;-141.97;25.61;47496.00;5017781;28;20177;-88
2023/10/09 13:56:14;;;;;;;5.43;3.63;;;;;;;-141.97;25.95;47157.75;5033582;28;20543;-88
2023/10/09 13:58:42;;;;;;;13.10;3.95;;;;;;;-141.97;25.86;47469.09;5016084;28;20185;-88
2023/10/09 14:01:11;;;;;;;7.75;3.97;;;;;;;-141.97;25.22;47257.69;5034708;28;20257;-88
2023/10/09 14:03:38;;;;;;;8.50;4.40;;;;;;;-141.97;25.39;47413.38;5037539;28;20188;-89
2023/10/09 14:06:12;;;;;;;7.68;3.58;;;;;;;-141.97;25.02;47219.25;5037100;28;20545;-89
2023/10/09 14:08:42;;;;;;;4.60;3.25;;;;;;;-141.97;25.37;47257.69;5037694;28;20166;-89
2023/10/09 14:11:13;;;;;;;7.13;3.55;;;;;;;-141.97;25.40;47307.66;5036035;28;20185;-90
2023/10/09 14:13:41;;;;;;;6.88;3.45;;;;;;;-141.97;25.37;47053.97;5034050;28;20640;-88
2023/10/09 14:16:07;;;;;;;5.05;3.35;;;;;;;-141.97;25.29;47084.72;5031087;28;20171;-88
2023/10/09 14:18:33;;;;;;;8.00;3.83;;;;;;;-141.97;25.31;47303.81;5031977;28;20649;-90
2023/10/09 14:21:15;;;;;;;5.95;3.40;;;;;;;-141.97;25.68;47111.63;5043929;28;20169;-89